createdAt,value
2023-03-12T00:01:33.783Z,98220.59
2023-03-12T00:04:04.095Z,98214.16
2023-03-12T00:06:31.000Z,98220.06
2023-03-12T00:08:58.770Z,98220.44
2023-03-12T00:11:25.297Z,98221.03
2023-03-12T00:13:53.306Z,98214.38
2023-03-12T00:16:20.915Z,98221.56
2023-03-12T00:18:49.243Z,98216.13
2023-03-12T00:21:16.247Z,98219.69
2023-03-12T00:23:42.761Z,98215.97
2023-03-12T00:26:12.332Z,98217.75
2023-03-12T00:28:40.056Z,98218.22
2023-03-12T00:31:17.242Z,98216.22
2023-03-12T00:33:44.313Z,98215.41
2023-03-12T00:36:11.120Z,98210.88
2023-03-12T00:38:37.727Z,98212.56
2023-03-12T00:41:04.397Z,98212.38
2023-03-12T00:43:30.912Z,98216.91
2023-03-12T00:45:57.433Z,98221.47
2023-03-12T00:48:24.007Z,98209.03
2023-03-12T00:50:50.733Z,98219.69
2023-03-12T00:53:17.207Z,98227.72
2023-03-12T00:55:43.772Z,98228.88
2023-03-12T00:58:10.300Z,98231.88
2023-03-12T01:00:36.857Z,98235.34
2023-03-12T01:03:03.696Z,98230.25
2023-03-12T01:05:30.262Z,98233.78
2023-03-12T01:07:56.762Z,98232.16
2023-03-12T01:10:23.431Z,98236.00
2023-03-12T01:12:49.988Z,98225.31
2023-03-12T01:15:17.675Z,98229.66
2023-03-12T01:17:44.225Z,98227.34
2023-03-12T01:20:11.243Z,98222.66
2023-03-12T01:22:38.351Z,98226.75
2023-03-12T01:25:05.181Z,98219.59
2023-03-12T01:27:31.657Z,98217.38
2023-03-12T01:29:58.235Z,98213.91
2023-03-12T01:32:25.542Z,98210.66
2023-03-12T01:34:52.035Z,98214.16
2023-03-12T01:37:18.588Z,98212.19
2023-03-12T01:39:45.071Z,98214.88
2023-03-12T01:42:11.550Z,98214.44
2023-03-12T01:44:57.261Z,98215.91
2023-03-12T01:47:24.329Z,98218.44
2023-03-12T01:49:52.299Z,98220.59
2023-03-12T01:52:22.238Z,98215.25
2023-03-12T01:54:56.709Z,98217.03
2023-03-12T01:57:36.506Z,98206.50
2023-03-12T02:00:13.857Z,98215.63
2023-03-12T02:02:41.469Z,98207.31
2023-03-12T02:05:10.985Z,98215.53
2023-03-12T02:07:37.578Z,98217.41
2023-03-12T02:10:05.511Z,98219.63
2023-03-12T02:12:32.144Z,98222.88
2023-03-12T02:14:58.782Z,98222.06
2023-03-12T02:17:25.335Z,98221.63
2023-03-12T02:20:33.449Z,98223.66
2023-03-12T02:23:06.329Z,98213.88
2023-03-12T02:25:42.866Z,98209.72
2023-03-12T02:28:13.941Z,98218.00
2023-03-12T02:30:45.202Z,98211.22
2023-03-12T02:33:12.407Z,98201.53
2023-03-12T02:35:39.119Z,98199.44
2023-03-12T02:38:28.528Z,98190.00
2023-03-12T02:40:58.164Z,98178.22
2023-03-12T02:43:24.732Z,98176.13
2023-03-12T02:45:51.402Z,98175.13
2023-03-12T02:48:17.891Z,98173.41
2023-03-12T02:50:44.513Z,98161.94
2023-03-12T02:53:11.104Z,98156.84
2023-03-12T02:55:37.621Z,98159.94
2023-03-12T02:58:04.126Z,98168.59
2023-03-12T03:00:32.219Z,98161.34
2023-03-12T03:02:59.887Z,98183.53
2023-03-12T03:05:26.414Z,98173.47
2023-03-12T03:07:52.884Z,98170.50
2023-03-12T03:10:19.573Z,98169.13
2023-03-12T03:12:46.092Z,98182.91
2023-03-12T03:15:12.966Z,98176.28
2023-03-12T03:17:39.490Z,98176.09
2023-03-12T03:20:11.030Z,98182.72
2023-03-12T03:22:38.748Z,98197.28
2023-03-12T03:25:06.575Z,98183.84
2023-03-12T03:27:33.572Z,98182.47
2023-03-12T03:30:00.442Z,98187.34
2023-03-12T03:32:27.343Z,98198.22
2023-03-12T03:34:53.967Z,98185.28
2023-03-12T03:37:20.467Z,98177.56
2023-03-12T03:39:46.929Z,98184.69
2023-03-12T03:42:13.469Z,98182.72
2023-03-12T03:44:39.967Z,98176.41
2023-03-12T03:47:06.675Z,98172.69
2023-03-12T03:49:33.246Z,98174.06
2023-03-12T03:51:59.768Z,98167.78
2023-03-12T03:54:26.386Z,98180.38
2023-03-12T03:56:52.910Z,98175.03
2023-03-12T03:59:19.423Z,98189.31
2023-03-12T04:01:45.962Z,98177.44
2023-03-12T04:04:12.536Z,98185.00
2023-03-12T04:06:39.017Z,98192.41
2023-03-12T04:09:05.732Z,98185.88
2023-03-12T04:11:32.202Z,98178.88
2023-03-12T04:13:58.664Z,98177.28
2023-03-12T04:16:25.282Z,98188.28
2023-03-12T04:18:51.982Z,98185.75
2023-03-12T04:21:18.702Z,98184.13
2023-03-12T04:23:45.170Z,98167.09
2023-03-12T04:26:11.949Z,98165.91
2023-03-12T04:28:38.663Z,98168.16
2023-03-12T04:31:07.544Z,98180.25
2023-03-12T04:33:36.819Z,98188.25
2023-03-12T04:36:04.089Z,98197.09
2023-03-12T04:38:31.179Z,98186.53
2023-03-12T04:41:01.417Z,98193.28
2023-03-12T04:43:29.872Z,98193.56
2023-03-12T04:45:57.131Z,98193.66
2023-03-12T04:48:24.356Z,98201.25
2023-03-12T04:50:50.881Z,98193.19
2023-03-12T04:53:17.446Z,98201.75
2023-03-12T04:55:44.040Z,98203.59
2023-03-12T04:58:10.838Z,98196.28
2023-03-12T05:00:40.031Z,98198.94
2023-03-12T05:03:07.150Z,98205.16
2023-03-12T05:05:34.046Z,98197.69
2023-03-12T05:08:00.507Z,98203.84
2023-03-12T05:10:27.084Z,98210.34
2023-03-12T05:12:53.614Z,98210.16
2023-03-12T05:15:20.123Z,98200.94
2023-03-12T05:17:46.699Z,98200.75
2023-03-12T05:20:13.889Z,98203.59
2023-03-12T05:22:40.644Z,98202.03
2023-03-12T05:25:07.593Z,98206.72
2023-03-12T05:27:34.261Z,98198.13
2023-03-12T05:30:00.724Z,98207.56
2023-03-12T05:32:27.304Z,98214.59
2023-03-12T05:34:53.965Z,98215.25
2023-03-12T05:37:20.458Z,98207.53
2023-03-12T05:39:46.929Z,98204.66
2023-03-12T05:42:14.925Z,98206.22
2023-03-12T05:44:42.800Z,98201.13
2023-03-12T05:47:09.385Z,98197.84
2023-03-12T05:49:36.046Z,98209.19
2023-03-12T05:52:02.697Z,98207.75
2023-03-12T05:54:29.265Z,98216.19
2023-03-12T05:56:56.366Z,98207.97
2023-03-12T05:59:22.879Z,98215.31
2023-03-12T06:01:49.614Z,98223.31
2023-03-12T06:04:16.199Z,98228.41
2023-03-12T06:06:42.702Z,98227.97
2023-03-12T06:09:09.677Z,98240.78
2023-03-12T06:11:36.269Z,98232.06
2023-03-12T06:14:03.267Z,98244.53
2023-03-12T06:16:30.234Z,98242.69
2023-03-12T06:19:01.714Z,98242.28
2023-03-12T06:21:31.872Z,98234.25
2023-03-12T06:23:59.314Z,98248.81
2023-03-12T06:26:26.556Z,98247.50
2023-03-12T06:28:53.494Z,98246.63
2023-03-12T06:31:20.924Z,98238.84
2023-03-12T06:33:48.016Z,98239.97
2023-03-12T06:36:14.571Z,98253.47
2023-03-12T06:38:41.554Z,98259.41
2023-03-12T06:41:12.070Z,98253.41
2023-03-12T06:43:39.684Z,98261.94
2023-03-12T06:46:08.759Z,98261.44
2023-03-12T06:48:36.943Z,98266.13
2023-03-12T06:51:04.752Z,98270.94
2023-03-12T06:53:32.226Z,98265.69
2023-03-12T06:55:59.236Z,98275.75
2023-03-12T06:58:26.198Z,98269.50
2023-03-12T07:00:54.685Z,98271.81
2023-03-12T07:03:21.699Z,98276.06
2023-03-12T07:05:50.293Z,98276.06
2023-03-12T07:08:18.689Z,98276.34
2023-03-12T07:10:46.262Z,98278.84
2023-03-12T07:13:12.935Z,98270.66
2023-03-12T07:15:39.488Z,98273.72
2023-03-12T07:18:07.923Z,98273.00
2023-03-12T07:20:37.919Z,98284.41
2023-03-12T07:23:04.987Z,98270.69
2023-03-12T07:25:31.784Z,98274.50
2023-03-12T07:27:58.242Z,98275.69
2023-03-12T07:30:24.748Z,98270.84
2023-03-12T07:32:51.334Z,98278.09
2023-03-12T07:35:18.023Z,98277.59
2023-03-12T07:37:44.506Z,98278.41
2023-03-12T07:40:11.632Z,98272.69
2023-03-12T07:42:38.140Z,98287.38
2023-03-12T07:45:05.088Z,98280.84
2023-03-12T07:47:31.814Z,98280.53
2023-03-12T07:49:58.549Z,98283.56
2023-03-12T07:52:25.312Z,98289.72
2023-03-12T07:54:52.874Z,98284.16
2023-03-12T07:57:19.893Z,98286.22
2023-03-12T07:59:47.189Z,98294.38
2023-03-12T08:02:14.133Z,98291.44
2023-03-12T08:04:41.020Z,98294.38
2023-03-12T08:07:09.333Z,98294.72
2023-03-12T08:09:36.469Z,98297.41
2023-03-12T08:12:03.061Z,98304.97
2023-03-12T08:14:31.745Z,98296.44
2023-03-12T08:16:59.047Z,98299.09
2023-03-12T08:19:25.848Z,98295.59
2023-03-12T08:21:53.312Z,98298.75
2023-03-12T08:24:21.542Z,98307.84
2023-03-12T08:26:48.412Z,98304.25
2023-03-12T08:29:16.095Z,98307.59
2023-03-12T08:31:57.360Z,98305.66
2023-03-12T08:34:29.228Z,98314.50
2023-03-12T08:36:56.469Z,98310.19
2023-03-12T08:39:23.081Z,98306.47
2023-03-12T08:41:49.550Z,98316.91
2023-03-12T08:44:16.038Z,98315.78
2023-03-12T08:46:42.532Z,98310.63
2023-03-12T08:49:09.003Z,98318.09
2023-03-12T08:51:35.585Z,98317.25
2023-03-12T08:54:02.142Z,98331.56
2023-03-12T08:56:28.651Z,98324.81
2023-03-12T08:58:55.260Z,98317.63
2023-03-12T09:01:21.865Z,98315.38
2023-03-12T09:03:50.946Z,98319.47
2023-03-12T09:06:19.370Z,98317.34
2023-03-12T09:08:46.909Z,98315.97
2023-03-12T09:11:15.011Z,98319.09
2023-03-12T09:14:08.220Z,98318.31
2023-03-12T09:16:28.809Z,98317.84
2023-03-12T09:18:55.554Z,98319.59
2023-03-12T09:21:22.127Z,98321.31
2023-03-12T09:23:48.639Z,98336.56
2023-03-12T09:26:15.138Z,98326.34
2023-03-12T09:28:42.548Z,98335.75
2023-03-12T09:31:09.071Z,98344.50
2023-03-12T09:33:36.002Z,98358.78
2023-03-12T09:36:03.039Z,98377.06
2023-03-12T09:38:31.897Z,98376.38
2023-03-12T09:40:58.866Z,98389.38
2023-03-12T09:43:41.412Z,98390.13
2023-03-12T09:46:22.728Z,98397.41
2023-03-12T09:48:52.004Z,98401.38
2023-03-12T09:51:33.865Z,98401.97
2023-03-12T09:54:04.035Z,98412.59
2023-03-12T09:56:31.097Z,98407.94
2023-03-12T09:58:57.628Z,98413.06
2023-03-12T10:01:38.678Z,98413.75
2023-03-12T10:04:26.185Z,98417.25
2023-03-12T10:07:05.463Z,98421.78
2023-03-12T10:10:03.756Z,98409.44
2023-03-12T10:12:39.278Z,98410.50
2023-03-12T10:15:40.102Z,98411.56
2023-03-12T10:18:31.867Z,98412.69
2023-03-12T10:21:01.164Z,98407.44
2023-03-12T10:23:39.754Z,98412.50
2023-03-12T10:26:12.419Z,98428.13
2023-03-12T10:28:49.154Z,98431.59
2023-03-12T10:31:23.951Z,98434.94
2023-03-12T10:33:55.387Z,98439.94
2023-03-12T10:36:28.581Z,98439.00
2023-03-12T10:38:55.606Z,98428.41
2023-03-12T10:41:25.722Z,98424.72
2023-03-12T10:43:52.962Z,98432.78
2023-03-12T10:46:35.001Z,98429.16
2023-03-12T10:49:23.191Z,98424.22
2023-03-12T10:52:03.651Z,98428.34
2023-03-12T10:54:36.738Z,98442.41
2023-03-12T10:57:04.213Z,98448.44
2023-03-12T10:59:36.800Z,98450.53
2023-03-12T11:02:23.891Z,98452.47
2023-03-12T11:04:52.083Z,98453.16
2023-03-12T11:07:29.863Z,98451.78
2023-03-12T11:10:08.527Z,98459.47
2023-03-12T11:12:37.338Z,98463.44
2023-03-12T11:15:20.658Z,98459.88
2023-03-12T11:17:47.400Z,98462.34
2023-03-12T11:20:34.144Z,98455.53
2023-03-12T11:23:14.441Z,98456.72
2023-03-12T11:25:41.004Z,98449.41
2023-03-12T11:28:18.112Z,98456.56
2023-03-12T11:30:44.792Z,98457.34
2023-03-12T11:33:12.496Z,98454.13
2023-03-12T11:36:09.217Z,98446.63
2023-03-12T11:39:02.253Z,98458.25
2023-03-12T11:41:55.205Z,98451.75
2023-03-12T11:44:42.350Z,98443.44
2023-03-12T11:47:36.688Z,98436.00
2023-03-12T11:50:15.073Z,98437.31
2023-03-12T11:53:00.327Z,98432.09
2023-03-12T11:55:38.953Z,98432.69
2023-03-12T11:58:30.218Z,98435.16
2023-03-12T12:01:15.402Z,98425.63
2023-03-12T12:04:03.659Z,98429.41
2023-03-12T12:06:52.543Z,98430.31
2023-03-12T12:09:38.629Z,98434.28
2023-03-12T12:12:42.631Z,98427.66
2023-03-12T12:15:30.704Z,98426.78
2023-03-12T12:18:35.999Z,98424.13
2023-03-12T12:21:14.229Z,98433.97
2023-03-12T12:24:13.232Z,98436.97
2023-03-12T12:27:00.904Z,98426.31
2023-03-12T12:29:43.340Z,98438.50
2023-03-12T12:32:17.802Z,98446.22
2023-03-12T12:34:44.336Z,98452.22
2023-03-12T12:37:32.058Z,98441.16
2023-03-12T12:40:30.943Z,98438.84
2023-03-12T12:43:42.487Z,98448.03
2023-03-12T12:46:32.202Z,98443.25
2023-03-12T12:49:17.510Z,98444.31
2023-03-12T12:51:49.492Z,98434.84
2023-03-12T12:54:37.847Z,98437.50
2023-03-12T12:57:07.031Z,98432.00
2023-03-12T12:59:43.154Z,98436.28
2023-03-12T13:02:19.482Z,98428.13
2023-03-12T13:04:46.932Z,98435.84
2023-03-12T13:07:13.377Z,98426.97
2023-03-12T13:09:43.747Z,98425.31
2023-03-12T13:12:25.215Z,98418.94
2023-03-12T13:14:53.508Z,98419.50
2023-03-12T13:17:34.962Z,98420.13
2023-03-12T13:20:10.891Z,98416.28
2023-03-12T13:23:15.277Z,98416.28
2023-03-12T13:26:27.469Z,98402.88
2023-03-12T13:29:02.714Z,98406.38
2023-03-12T13:31:37.779Z,98403.91
2023-03-12T13:34:19.518Z,98397.75
2023-03-12T13:36:48.037Z,98400.00
2023-03-12T13:39:17.298Z,98392.78
2023-03-12T13:41:49.870Z,98399.84
2023-03-12T13:44:34.156Z,98395.06
2023-03-12T13:47:05.210Z,98386.66
2023-03-12T13:49:40.004Z,98378.38
2023-03-12T13:52:19.212Z,98379.47
2023-03-12T13:54:49.356Z,98384.91
2023-03-12T13:57:46.563Z,98387.56
2023-03-12T14:00:21.309Z,98380.56
2023-03-12T14:03:03.352Z,98388.13
2023-03-12T14:05:34.110Z,98383.44
2023-03-12T14:08:03.706Z,98379.97
2023-03-12T14:10:48.195Z,98381.75
2023-03-12T14:13:24.430Z,98381.41
2023-03-12T14:16:18.524Z,98379.84
2023-03-12T14:18:46.301Z,98373.75
2023-03-12T14:21:17.674Z,98366.59
2023-03-12T14:23:54.802Z,98354.22
2023-03-12T14:26:31.547Z,98356.53
2023-03-12T14:29:02.202Z,98350.75
2023-03-12T14:31:30.377Z,98352.41
2023-03-12T14:34:09.962Z,98345.75
2023-03-12T14:36:41.483Z,98355.66
2023-03-12T14:39:23.820Z,98346.41
2023-03-12T14:41:58.919Z,98345.63
2023-03-12T14:44:28.710Z,98352.75
2023-03-12T14:47:16.029Z,98352.25
2023-03-12T14:49:45.111Z,98344.19
2023-03-12T14:52:22.134Z,98341.19
2023-03-12T14:55:04.579Z,98337.69
2023-03-12T14:57:31.147Z,98338.81
2023-03-12T15:00:00.375Z,98340.16
2023-03-12T15:02:30.174Z,98346.91
2023-03-12T15:05:00.154Z,98343.16
2023-03-12T15:07:34.325Z,98345.88
2023-03-12T15:10:05.403Z,98349.38
2023-03-12T15:12:35.448Z,98351.78
2023-03-12T15:15:08.451Z,98350.97
2023-03-12T15:17:35.654Z,98351.25
2023-03-12T15:20:09.884Z,98346.13
2023-03-12T15:22:37.544Z,98340.44
2023-03-12T15:25:26.328Z,98335.59
2023-03-12T15:28:24.214Z,98332.06
2023-03-12T15:31:10.242Z,98334.22
2023-03-12T15:33:36.827Z,98330.69
2023-03-12T15:36:06.329Z,98340.97
2023-03-12T15:38:38.274Z,98326.88
2023-03-12T15:41:09.621Z,98327.94
2023-03-12T15:43:37.648Z,98330.41
2023-03-12T15:46:07.031Z,98336.34
2023-03-12T15:48:37.917Z,98328.53
2023-03-12T15:51:13.842Z,98330.69
2023-03-12T15:53:41.130Z,98322.56
2023-03-12T15:56:10.589Z,98327.44
2023-03-12T15:58:40.547Z,98318.78
2023-03-12T16:01:18.324Z,98331.50
2023-03-12T16:03:45.794Z,98331.25
2023-03-12T16:06:18.497Z,98333.41
2023-03-12T16:08:48.914Z,98338.78
2023-03-12T16:11:23.712Z,98337.19
2023-03-12T16:13:55.179Z,98345.03
2023-03-12T16:16:21.698Z,98349.34
2023-03-12T16:18:48.237Z,98338.25
2023-03-12T16:21:14.787Z,98336.34
2023-03-12T16:23:41.291Z,98336.59
2023-03-12T16:26:07.916Z,98332.81
2023-03-12T16:28:36.402Z,98337.69
2023-03-12T16:31:03.002Z,98339.31
2023-03-12T16:33:29.443Z,98336.59
2023-03-12T16:35:56.100Z,98336.84
2023-03-12T16:38:22.692Z,98328.47
2023-03-12T16:40:52.059Z,98329.59
2023-03-12T16:43:21.747Z,98323.06
2023-03-12T16:45:49.741Z,98319.81
2023-03-12T16:48:19.650Z,98311.72
2023-03-12T16:50:51.699Z,98313.31
2023-03-12T16:53:18.862Z,98313.88
2023-03-12T16:55:50.732Z,98304.69
2023-03-12T16:58:19.938Z,98308.47
2023-03-12T17:00:47.542Z,98308.47
2023-03-12T17:03:24.840Z,98304.13
2023-03-12T17:05:51.413Z,98298.19
2023-03-12T17:08:17.861Z,98296.56
2023-03-12T17:10:44.916Z,98299.03
2023-03-12T17:13:19.055Z,98301.13
2023-03-12T17:15:46.124Z,98306.78
2023-03-12T17:18:13.061Z,98313.44
2023-03-12T17:20:39.739Z,98314.41
2023-03-12T17:23:06.654Z,98314.59
2023-03-12T17:25:35.712Z,98325.34
2023-03-12T17:28:02.268Z,98332.00
2023-03-12T17:30:30.178Z,98329.28
2023-03-12T17:33:06.414Z,98331.69
2023-03-12T17:35:33.254Z,98338.63
2023-03-12T17:38:00.122Z,98333.66
2023-03-12T17:40:27.342Z,98341.56
2023-03-12T17:42:54.082Z,98337.72
2023-03-12T17:45:21.101Z,98346.56
2023-03-12T17:47:47.925Z,98346.16
2023-03-12T17:50:14.740Z,98343.47
2023-03-12T17:52:41.291Z,98356.13
2023-03-12T17:55:11.039Z,98357.44
2023-03-12T17:57:38.124Z,98369.91
2023-03-12T18:00:10.909Z,98371.09
2023-03-12T18:02:37.424Z,98379.72
2023-03-12T18:05:04.274Z,98387.41
2023-03-12T18:07:30.740Z,98387.69
2023-03-12T18:09:57.274Z,98385.22
2023-03-12T18:12:23.807Z,98386.00
2023-03-12T18:14:50.343Z,98393.88
2023-03-12T18:17:16.823Z,98395.44
2023-03-12T18:19:43.497Z,98389.25
2023-03-12T18:22:14.086Z,98398.88
2023-03-12T18:24:41.774Z,98410.69
2023-03-12T18:27:08.429Z,98401.81
2023-03-12T18:29:36.840Z,98402.13
2023-03-12T18:32:04.256Z,98400.19
2023-03-12T18:34:30.765Z,98395.59
2023-03-12T18:36:57.313Z,98394.00
2023-03-12T18:39:23.923Z,98401.47
2023-03-12T18:41:50.862Z,98398.09
2023-03-12T18:44:17.297Z,98397.47
2023-03-12T18:46:43.886Z,98395.84
2023-03-12T18:49:12.359Z,98393.22
2023-03-12T18:51:38.929Z,98402.66
2023-03-12T18:54:05.463Z,98395.66
2023-03-12T18:56:31.957Z,98392.72
2023-03-12T18:58:58.503Z,98392.22
2023-03-12T19:01:26.099Z,98391.09
2023-03-12T19:03:52.670Z,98399.59
2023-03-12T19:06:19.215Z,98406.13
2023-03-12T19:08:45.901Z,98410.03
2023-03-12T19:11:15.627Z,98412.69
2023-03-12T19:13:42.842Z,98412.94
2023-03-12T19:16:11.638Z,98411.06
2023-03-12T19:18:38.829Z,98414.53
2023-03-12T19:21:08.334Z,98418.38
2023-03-12T19:23:35.661Z,98427.97
2023-03-12T19:26:02.514Z,98420.88
2023-03-12T19:28:29.127Z,98423.00
2023-03-12T19:31:03.594Z,98424.97
2023-03-12T19:33:30.808Z,98427.16
2023-03-12T19:35:57.968Z,98430.59
2023-03-12T19:38:24.561Z,98440.72
2023-03-12T19:40:55.881Z,98445.41
2023-03-12T19:43:23.127Z,98445.41
2023-03-12T19:45:50.314Z,98444.75
2023-03-12T19:48:17.074Z,98441.28
2023-03-12T19:50:46.553Z,98439.84
2023-03-12T19:53:13.567Z,98444.53
2023-03-12T19:55:40.073Z,98448.06
2023-03-12T19:58:08.127Z,98447.97
2023-03-12T20:00:34.747Z,98447.63
2023-03-12T20:03:01.427Z,98442.88
2023-03-12T20:05:28.053Z,98442.94
2023-03-12T20:07:54.559Z,98447.47
2023-03-12T20:10:21.379Z,98460.69
2023-03-12T20:12:47.913Z,98453.34
2023-03-12T20:15:14.545Z,98459.31
2023-03-12T20:17:41.050Z,98461.03
2023-03-12T20:20:09.188Z,98460.81
2023-03-12T20:22:36.430Z,98468.84
2023-03-12T20:25:05.506Z,98463.06
2023-03-12T20:27:34.034Z,98461.28
2023-03-12T20:30:00.843Z,98467.97
2023-03-12T20:32:27.445Z,98464.69
2023-03-12T20:34:53.972Z,98459.09
2023-03-12T20:37:20.470Z,98465.03
2023-03-12T20:39:46.927Z,98464.44
2023-03-12T20:42:13.484Z,98464.34
2023-03-12T20:44:40.022Z,98463.63
2023-03-12T20:47:06.533Z,98465.97
2023-03-12T20:49:33.448Z,98461.19
2023-03-12T20:52:00.197Z,98461.28
2023-03-12T20:54:27.731Z,98460.94
2023-03-12T20:56:54.299Z,98459.66
2023-03-12T20:59:20.849Z,98460.25
2023-03-12T21:01:47.368Z,98458.03
2023-03-12T21:04:13.856Z,98455.03
2023-03-12T21:06:43.445Z,98452.09
2023-03-12T21:09:09.999Z,98443.69
2023-03-12T21:11:37.442Z,98445.66
2023-03-12T21:14:04.084Z,98449.41
2023-03-12T21:16:30.605Z,98443.72
2023-03-12T21:18:58.097Z,98427.63
2023-03-12T21:21:24.825Z,98430.63
2023-03-12T21:23:51.478Z,98427.38
2023-03-12T21:26:18.618Z,98424.69
2023-03-12T21:28:45.539Z,98431.69
2023-03-12T21:31:15.493Z,98427.16
2023-03-12T21:33:42.902Z,98427.63
2023-03-12T21:36:12.202Z,98431.00
2023-03-12T21:38:40.346Z,98427.75
2023-03-12T21:41:08.924Z,98422.47
2023-03-12T21:43:36.041Z,98428.91
2023-03-12T21:46:10.545Z,98436.00
2023-03-12T21:48:37.461Z,98431.59
2023-03-12T21:51:06.168Z,98434.13
2023-03-12T21:53:33.357Z,98434.13
2023-03-12T21:56:01.352Z,98418.31
2023-03-12T21:58:29.671Z,98416.78
2023-03-12T22:01:13.870Z,98408.75
2023-03-12T22:03:42.208Z,98403.50
2023-03-12T22:06:10.073Z,98396.41
2023-03-12T22:08:36.983Z,98387.91
2023-03-12T22:11:05.128Z,98386.75
2023-03-12T22:13:31.848Z,98380.31
2023-03-12T22:16:00.973Z,98379.66
2023-03-12T22:18:28.453Z,98376.03
2023-03-12T22:20:57.613Z,98370.28
2023-03-12T22:23:24.981Z,98381.47
2023-03-12T22:25:51.513Z,98377.44
2023-03-12T22:28:18.103Z,98371.94
2023-03-12T22:30:44.768Z,98366.94
2023-03-12T22:33:11.646Z,98369.97
2023-03-12T22:35:48.639Z,98362.28
2023-03-12T22:38:15.328Z,98367.53
2023-03-12T22:40:42.158Z,98350.97
2023-03-12T22:43:08.896Z,98355.63
2023-03-12T22:45:35.729Z,98345.03
2023-03-12T22:48:02.518Z,98342.00
2023-03-12T22:50:29.053Z,98329.31
2023-03-12T22:52:55.554Z,98333.03
2023-03-12T22:55:22.081Z,98327.47
2023-03-12T22:57:48.526Z,98336.19
2023-03-12T23:00:18.289Z,98324.41
2023-03-12T23:02:44.866Z,98328.91
2023-03-12T23:05:11.677Z,98324.06
2023-03-12T23:07:38.295Z,98315.44
2023-03-12T23:10:05.673Z,98306.22
2023-03-12T23:12:32.809Z,98306.00
2023-03-12T23:14:59.444Z,98297.16
2023-03-12T23:17:25.990Z,98289.00
2023-03-12T23:19:52.498Z,98290.38
2023-03-12T23:22:18.987Z,98287.25
2023-03-12T23:24:45.512Z,98276.06
2023-03-12T23:27:12.015Z,98274.09
2023-03-12T23:29:38.619Z,98269.44
2023-03-12T23:32:05.588Z,98272.69
2023-03-12T23:34:34.146Z,98264.19
2023-03-12T23:37:00.801Z,98271.06
2023-03-12T23:39:29.769Z,98270.00
2023-03-12T23:41:56.841Z,98268.84
2023-03-12T23:44:23.606Z,98265.25
2023-03-12T23:46:50.160Z,98264.78
2023-03-12T23:49:16.671Z,98268.41
2023-03-12T23:51:43.172Z,98266.31
2023-03-12T23:54:09.649Z,98260.72
2023-03-12T23:56:38.615Z,98268.06
2023-03-12T23:59:06.371Z,98269.34
